createdAt,value
2023-02-13T00:00:37.239Z,1.86
2023-02-13T00:03:05.620Z,1.85
2023-02-13T00:05:33.552Z,1.75
2023-02-13T00:08:01.642Z,1.72
2023-02-13T00:10:30.852Z,1.64
2023-02-13T00:12:58.661Z,1.49
2023-02-13T00:15:26.526Z,1.41
2023-02-13T00:17:54.326Z,1.43
2023-02-13T00:20:22.419Z,1.43
2023-02-13T00:22:50.343Z,1.43
2023-02-13T00:25:18.326Z,1.45
2023-02-13T00:27:47.644Z,1.57
2023-02-13T00:30:16.621Z,1.77
2023-02-13T00:32:44.863Z,1.94
2023-02-13T00:35:12.810Z,2.04
2023-02-13T00:37:40.672Z,2.15
2023-02-13T00:40:09.750Z,2.25
2023-02-13T00:42:37.582Z,2.32
2023-02-13T00:45:07.218Z,2.34
2023-02-13T00:47:35.078Z,2.33
2023-02-13T00:50:02.978Z,2.34
2023-02-13T00:52:30.854Z,2.38
2023-02-13T00:54:58.754Z,2.34
2023-02-13T00:57:26.669Z,2.35
2023-02-13T00:59:54.583Z,2.30
2023-02-13T01:02:23.849Z,2.30
2023-02-13T01:04:51.731Z,2.26
2023-02-13T01:07:19.699Z,2.20
2023-02-13T01:09:47.523Z,2.16
2023-02-13T01:12:15.409Z,2.11
2023-02-13T01:14:44.739Z,2.11
2023-02-13T01:17:12.654Z,2.08
2023-02-13T01:19:42.982Z,1.92
2023-02-13T01:22:10.907Z,1.80
2023-02-13T01:24:38.794Z,1.71
2023-02-13T01:27:06.613Z,1.78
2023-02-13T01:29:34.587Z,1.68
2023-02-13T01:32:05.178Z,1.56
2023-02-13T01:34:33.500Z,1.54
2023-02-13T01:37:02.865Z,1.45
2023-02-13T01:39:30.721Z,1.61
2023-02-13T01:42:00.263Z,1.69
2023-02-13T01:44:48.378Z,1.82
2023-02-13T01:47:23.777Z,1.86
2023-02-13T01:49:57.005Z,1.86
2023-02-13T01:52:26.320Z,1.90
2023-02-13T01:54:54.527Z,1.94
2023-02-13T01:57:26.804Z,1.98
2023-02-13T01:59:58.572Z,1.99
2023-02-13T02:02:29.568Z,2.01
2023-02-13T02:05:00.594Z,2.02
2023-02-13T02:07:31.874Z,1.92
2023-02-13T02:10:08.706Z,1.63
2023-02-13T02:12:44.606Z,1.39
2023-02-13T02:15:13.568Z,1.36
2023-02-13T02:17:41.928Z,1.36
2023-02-13T02:20:23.187Z,1.32
2023-02-13T02:23:38.364Z,1.17
2023-02-13T02:26:45.250Z,1.10
2023-02-13T02:29:27.731Z,0.82
2023-02-13T02:32:22.590Z,0.64
2023-02-13T02:35:00.186Z,0.55
2023-02-13T02:37:45.817Z,0.53
2023-02-13T02:40:26.883Z,0.51
2023-02-13T02:43:14.305Z,0.43
2023-02-13T02:45:49.671Z,0.52
2023-02-13T02:48:45.833Z,0.65
2023-02-13T02:51:22.609Z,0.78
2023-02-13T02:54:25.642Z,1.01
2023-02-13T02:56:58.165Z,1.22
2023-02-13T02:59:48.010Z,1.34
2023-02-13T03:02:34.881Z,1.35
2023-02-13T03:05:22.708Z,1.25
2023-02-13T03:07:50.691Z,1.24
2023-02-13T03:10:42.496Z,1.30
2023-02-13T03:13:24.499Z,1.33
2023-02-13T03:16:15.270Z,1.20
2023-02-13T03:19:04.537Z,1.16
2023-02-13T03:22:05.902Z,1.18
2023-02-13T03:24:42.825Z,1.22
2023-02-13T03:27:37.235Z,1.29
2023-02-13T03:30:16.565Z,1.35
2023-02-13T03:32:50.831Z,1.24
2023-02-13T03:35:48.258Z,1.30
2023-02-13T03:38:24.221Z,1.01
2023-02-13T03:41:13.155Z,0.61
2023-02-13T03:43:48.882Z,0.32
2023-02-13T03:46:19.355Z,0.17
2023-02-13T03:49:06.107Z,0.13
2023-02-13T03:51:38.608Z,0.13
2023-02-13T03:54:17.234Z,0.21
2023-02-13T03:57:03.441Z,0.44
2023-02-13T03:59:35.142Z,0.58
2023-02-13T04:02:08.600Z,0.75
2023-02-13T04:04:44.868Z,0.90
2023-02-13T04:07:29.573Z,1.01
2023-02-13T04:10:01.090Z,1.08
2023-02-13T04:12:39.319Z,1.08
2023-02-13T04:15:13.806Z,1.15
2023-02-13T04:17:47.218Z,1.19
2023-02-13T04:20:15.907Z,1.06
2023-02-13T04:22:44.732Z,1.10
2023-02-13T04:25:16.802Z,1.03
2023-02-13T04:27:44.820Z,0.95
2023-02-13T04:30:13.887Z,0.94
2023-02-13T04:32:41.721Z,0.98
2023-02-13T04:35:11.567Z,0.92
2023-02-13T04:37:39.466Z,0.78
2023-02-13T04:40:08.688Z,0.76
2023-02-13T04:42:37.994Z,0.73
2023-02-13T04:45:06.134Z,0.74
2023-02-13T04:47:34.301Z,0.65
2023-02-13T04:50:02.226Z,0.86
2023-02-13T04:52:30.122Z,0.91
2023-02-13T04:54:58.024Z,0.81
2023-02-13T04:57:25.852Z,0.66
2023-02-13T04:59:55.027Z,0.57
2023-02-13T05:02:22.919Z,0.60
2023-02-13T05:04:50.851Z,0.70
2023-02-13T05:07:18.690Z,0.76
2023-02-13T05:09:46.564Z,0.86
2023-02-13T05:12:14.407Z,0.92
2023-02-13T05:14:42.446Z,0.91
2023-02-13T05:17:11.675Z,0.92
2023-02-13T05:19:39.628Z,0.92
2023-02-13T05:22:25.064Z,1.01
2023-02-13T05:24:53.011Z,1.01
2023-02-13T05:27:20.847Z,0.99
2023-02-13T05:29:48.707Z,0.98
2023-02-13T05:32:17.955Z,1.08
2023-02-13T05:34:45.928Z,1.07
2023-02-13T05:37:13.884Z,1.06
2023-02-13T05:39:42.124Z,1.01
2023-02-13T05:42:10.656Z,1.14
2023-02-13T05:44:38.529Z,1.23
2023-02-13T05:47:06.599Z,1.13
2023-02-13T05:49:35.847Z,1.10
2023-02-13T05:52:03.835Z,1.07
2023-02-13T05:54:31.734Z,1.01
2023-02-13T05:56:59.622Z,1.10
2023-02-13T05:59:27.573Z,1.23
2023-02-13T06:01:55.446Z,1.30
2023-02-13T06:04:23.309Z,1.19
2023-02-13T06:06:52.516Z,1.21
2023-02-13T06:09:20.482Z,1.17
2023-02-13T06:11:48.337Z,1.10
2023-02-13T06:14:16.429Z,1.03
2023-02-13T06:16:44.251Z,1.00
2023-02-13T06:19:12.174Z,0.92
2023-02-13T06:21:40.035Z,0.83
2023-02-13T06:24:09.774Z,0.71
2023-02-13T06:26:39.547Z,0.58
2023-02-13T06:29:09.300Z,0.43
2023-02-13T06:31:37.264Z,0.54
2023-02-13T06:34:05.391Z,0.75
2023-02-13T06:36:33.349Z,0.77
2023-02-13T06:39:01.194Z,1.07
2023-02-13T06:41:30.449Z,1.17
2023-02-13T06:43:58.285Z,1.30
2023-02-13T06:46:26.140Z,1.42
2023-02-13T06:48:53.969Z,1.49
2023-02-13T06:51:21.968Z,1.66
2023-02-13T06:53:49.817Z,1.79
2023-02-13T06:56:17.608Z,1.88
2023-02-13T06:58:46.829Z,1.95
2023-02-13T07:01:14.751Z,2.04
2023-02-13T07:03:42.647Z,2.11
2023-02-13T07:06:10.551Z,2.16
2023-02-13T07:08:38.453Z,2.02
2023-02-13T07:11:06.388Z,2.07
2023-02-13T07:13:34.225Z,2.04
2023-02-13T07:16:03.578Z,2.14
2023-02-13T07:18:31.556Z,2.25
2023-02-13T07:20:59.934Z,2.31
2023-02-13T07:23:28.015Z,2.36
2023-02-13T07:25:56.041Z,2.22
2023-02-13T07:28:24.122Z,2.27
2023-02-13T07:30:52.205Z,2.23
2023-02-13T07:33:25.783Z,2.22
2023-02-13T07:35:53.686Z,2.34
2023-02-13T07:38:21.771Z,2.41
2023-02-13T07:40:49.673Z,2.46
2023-02-13T07:43:17.703Z,2.44
2023-02-13T07:45:47.027Z,2.57
2023-02-13T07:48:14.978Z,2.63
2023-02-13T07:50:44.236Z,2.69
2023-02-13T07:53:12.101Z,2.73
2023-02-13T07:55:40.050Z,2.82
2023-02-13T07:58:07.908Z,2.94
2023-02-13T08:00:35.742Z,2.98
2023-02-13T08:03:04.001Z,3.05
2023-02-13T08:05:34.022Z,3.09
2023-02-13T08:08:03.206Z,3.18
2023-02-13T08:10:49.130Z,3.19
2023-02-13T08:13:18.206Z,3.23
2023-02-13T08:15:47.105Z,3.25
2023-02-13T08:18:14.980Z,3.28
2023-02-13T08:20:42.851Z,3.22
2023-02-13T08:23:12.912Z,3.25
2023-02-13T08:25:41.578Z,3.33
2023-02-13T08:28:09.611Z,3.39
2023-02-13T08:30:37.600Z,3.41
2023-02-13T08:33:05.483Z,3.48
2023-02-13T08:35:33.391Z,3.59
2023-02-13T08:38:04.127Z,3.70
2023-02-13T08:40:33.629Z,3.68
2023-02-13T08:43:02.485Z,3.66
2023-02-13T08:45:30.510Z,3.59
2023-02-13T08:47:58.848Z,3.54
2023-02-13T08:50:28.552Z,3.60
2023-02-13T08:52:56.520Z,3.71
2023-02-13T08:55:24.402Z,3.81
2023-02-13T08:57:53.742Z,3.85
2023-02-13T09:00:22.584Z,3.86
2023-02-13T09:02:50.469Z,4.00
2023-02-13T09:05:18.408Z,4.04
2023-02-13T09:07:46.264Z,4.18
2023-02-13T09:10:14.210Z,4.34
2023-02-13T09:12:42.167Z,4.34
2023-02-13T09:15:11.632Z,4.54
2023-02-13T09:17:39.638Z,4.65
2023-02-13T09:20:08.583Z,4.72
2023-02-13T09:22:36.433Z,4.77
2023-02-13T09:25:04.900Z,4.78
2023-02-13T09:27:33.614Z,4.66
2023-02-13T09:30:01.664Z,4.65
2023-02-13T09:32:31.049Z,4.68
2023-02-13T09:34:58.962Z,4.75
2023-02-13T09:37:27.009Z,4.84
2023-02-13T09:39:54.886Z,4.84
2023-02-13T09:42:25.999Z,4.94
2023-02-13T09:44:56.723Z,4.97
2023-02-13T09:47:30.779Z,5.01
2023-02-13T09:50:04.358Z,5.01
2023-02-13T09:52:34.676Z,5.00
2023-02-13T09:55:03.184Z,5.02
2023-02-13T09:57:36.803Z,5.22
2023-02-13T10:00:14.538Z,5.35
2023-02-13T10:03:01.216Z,5.52
2023-02-13T10:05:57.887Z,5.67
2023-02-13T10:08:35.892Z,5.80
2023-02-13T10:11:11.320Z,5.95
2023-02-13T10:13:58.146Z,6.00
2023-02-13T10:16:31.254Z,6.07
2023-02-13T10:19:06.751Z,6.16
2023-02-13T10:21:42.710Z,6.21
2023-02-13T10:24:14.831Z,6.25
2023-02-13T10:26:46.646Z,6.28
2023-02-13T10:29:39.846Z,6.31
2023-02-13T10:32:11.846Z,6.34
2023-02-13T10:34:44.595Z,6.39
2023-02-13T10:37:17.407Z,6.37
2023-02-13T10:39:48.531Z,6.22
2023-02-13T10:42:25.964Z,6.07
2023-02-13T10:45:14.849Z,6.05
2023-02-13T10:47:55.125Z,5.94
2023-02-13T10:50:31.494Z,5.82
2023-02-13T10:53:12.870Z,5.63
2023-02-13T10:56:08.087Z,5.44
2023-02-13T10:58:51.719Z,5.30
2023-02-13T11:01:30.971Z,5.19
2023-02-13T11:04:06.904Z,5.11
2023-02-13T11:06:37.818Z,5.04
2023-02-13T11:09:08.567Z,5.00
2023-02-13T11:11:38.509Z,4.98
2023-02-13T11:14:13.231Z,4.97
2023-02-13T11:16:57.584Z,4.99
2023-02-13T11:19:30.697Z,4.99
2023-02-13T11:22:02.867Z,4.92
2023-02-13T11:24:33.663Z,5.01
2023-02-13T11:27:08.671Z,5.06
2023-02-13T11:29:38.537Z,5.10
2023-02-13T11:32:18.684Z,5.14
2023-02-13T11:34:47.620Z,5.17
2023-02-13T11:37:24.727Z,5.22
2023-02-13T11:39:56.016Z,5.25
2023-02-13T11:42:30.552Z,5.31
2023-02-13T11:45:02.612Z,5.36
2023-02-13T11:47:40.265Z,5.42
2023-02-13T11:50:22.202Z,5.45
2023-02-13T11:53:03.222Z,5.50
2023-02-13T11:55:35.362Z,5.55
2023-02-13T11:58:05.405Z,5.65
2023-02-13T12:00:39.868Z,5.71
2023-02-13T12:03:29.986Z,5.96
2023-02-13T12:06:03.832Z,6.20
2023-02-13T12:08:33.768Z,6.46
2023-02-13T12:11:07.299Z,6.74
2023-02-13T12:13:38.925Z,6.92
2023-02-13T12:16:13.875Z,7.05
2023-02-13T12:18:45.848Z,7.11
2023-02-13T12:21:38.310Z,7.20
2023-02-13T12:24:16.840Z,7.40
2023-02-13T12:26:49.786Z,7.58
2023-02-13T12:29:36.280Z,7.72
2023-02-13T12:32:16.638Z,7.70
2023-02-13T12:35:04.818Z,7.66
2023-02-13T12:37:59.021Z,7.55
2023-02-13T12:41:03.440Z,7.42
2023-02-13T12:43:59.629Z,7.39
2023-02-13T12:46:37.661Z,7.40
2023-02-13T12:49:23.264Z,7.47
2023-02-13T12:52:02.097Z,7.50
2023-02-13T12:54:45.905Z,7.57
2023-02-13T12:57:28.815Z,7.72
2023-02-13T13:00:16.399Z,7.74
2023-02-13T13:03:06.813Z,7.96
2023-02-13T13:06:03.570Z,8.09
2023-02-13T13:09:11.450Z,8.27
2023-02-13T13:12:09.192Z,8.32
2023-02-13T13:14:46.298Z,8.34
2023-02-13T13:17:31.653Z,8.24
2023-02-13T13:20:14.459Z,8.24
2023-02-13T13:22:53.454Z,8.22
2023-02-13T13:25:24.637Z,8.20
2023-02-13T13:27:56.624Z,8.18
2023-02-13T13:30:28.818Z,8.21
2023-02-13T13:33:03.902Z,8.26
2023-02-13T13:35:34.106Z,8.33
2023-02-13T13:38:13.128Z,8.38
2023-02-13T13:40:49.064Z,8.40
2023-02-13T13:43:27.254Z,8.40
2023-02-13T13:46:08.281Z,8.45
2023-02-13T13:48:56.668Z,8.44
2023-02-13T13:51:25.459Z,8.42
2023-02-13T13:54:26.026Z,8.42
2023-02-13T13:57:13.563Z,8.38
2023-02-13T14:00:03.638Z,8.36
2023-02-13T14:02:42.705Z,8.35
2023-02-13T14:05:56.039Z,8.33
2023-02-13T14:08:57.134Z,8.31
2023-02-13T14:11:31.889Z,8.28
2023-02-13T14:14:00.576Z,8.29
2023-02-13T14:16:43.693Z,8.19
2023-02-13T14:19:30.489Z,7.98
2023-02-13T14:22:33.671Z,8.11
2023-02-13T14:25:03.951Z,8.11
2023-02-13T14:27:34.124Z,8.08
2023-02-13T14:30:03.024Z,8.08
2023-02-13T14:32:33.429Z,8.10
2023-02-13T14:35:03.306Z,8.08
2023-02-13T14:37:37.396Z,8.04
2023-02-13T14:40:31.170Z,8.02
2023-02-13T14:43:06.450Z,7.96
2023-02-13T14:45:42.103Z,7.91
2023-02-13T14:48:15.447Z,7.71
2023-02-13T14:50:51.434Z,7.83
2023-02-13T14:53:28.903Z,7.81
2023-02-13T14:56:02.030Z,7.80
2023-02-13T14:58:33.624Z,7.78
2023-02-13T15:01:06.361Z,7.76
2023-02-13T15:03:39.356Z,7.74
2023-02-13T15:06:15.324Z,7.71
2023-02-13T15:08:49.819Z,7.69
2023-02-13T15:11:39.203Z,7.68
2023-02-13T15:14:18.439Z,7.62
2023-02-13T15:16:49.664Z,7.76
2023-02-13T15:19:20.292Z,7.68
2023-02-13T15:21:52.951Z,7.69
2023-02-13T15:24:26.464Z,7.64
2023-02-13T15:27:00.107Z,7.66
2023-02-13T15:29:37.917Z,7.52
2023-02-13T15:32:20.539Z,7.64
2023-02-13T15:34:49.792Z,7.64
2023-02-13T15:37:25.466Z,7.65
2023-02-13T15:39:54.767Z,7.58
2023-02-13T15:42:22.767Z,7.50
2023-02-13T15:44:53.992Z,7.28
2023-02-13T15:47:27.644Z,7.35
2023-02-13T15:49:55.830Z,7.32
2023-02-13T15:52:30.685Z,7.24
2023-02-13T15:55:00.293Z,7.25
2023-02-13T15:57:29.230Z,7.19
2023-02-13T16:00:00.374Z,7.15
2023-02-13T16:02:35.614Z,7.13
2023-02-13T16:05:03.924Z,7.09
2023-02-13T16:07:32.120Z,7.04
2023-02-13T16:10:16.992Z,7.02
2023-02-13T16:12:47.967Z,6.97
2023-02-13T16:15:19.691Z,6.93
2023-02-13T16:17:48.739Z,6.89
2023-02-13T16:20:22.303Z,6.80
2023-02-13T16:22:53.398Z,6.80
2023-02-13T16:25:26.177Z,6.77
2023-02-13T16:27:57.418Z,6.69
2023-02-13T16:30:34.937Z,6.74
2023-02-13T16:33:21.389Z,6.75
2023-02-13T16:35:51.013Z,6.76
2023-02-13T16:38:33.267Z,6.78
2023-02-13T16:41:04.059Z,6.78
2023-02-13T16:43:53.595Z,6.76
2023-02-13T16:46:33.229Z,6.72
2023-02-13T16:49:20.365Z,6.70
2023-02-13T16:51:51.388Z,6.69
2023-02-13T16:54:24.119Z,6.66
2023-02-13T16:56:57.182Z,6.63
2023-02-13T16:59:32.157Z,6.56
2023-02-13T17:02:21.147Z,6.50
2023-02-13T17:04:51.904Z,6.42
2023-02-13T17:07:22.951Z,6.40
2023-02-13T17:09:54.446Z,6.37
2023-02-13T17:12:24.670Z,6.34
2023-02-13T17:14:53.424Z,6.38
2023-02-13T17:17:23.077Z,6.40
2023-02-13T17:19:51.728Z,6.43
2023-02-13T17:22:38.904Z,6.45
2023-02-13T17:25:09.581Z,6.44
2023-02-13T17:27:38.913Z,6.47
2023-02-13T17:30:08.449Z,6.48
2023-02-13T17:32:37.646Z,6.48
2023-02-13T17:35:05.840Z,6.51
2023-02-13T17:37:34.124Z,6.52
2023-02-13T17:40:02.050Z,6.49
2023-02-13T17:42:31.163Z,6.47
2023-02-13T17:45:00.373Z,6.44
2023-02-13T17:47:30.217Z,6.48
2023-02-13T17:50:08.902Z,6.45
2023-02-13T17:52:38.603Z,6.44
2023-02-13T17:55:08.429Z,6.42
2023-02-13T17:57:36.324Z,6.42
2023-02-13T18:00:07.267Z,6.41
2023-02-13T18:02:42.384Z,6.42
2023-02-13T18:05:10.723Z,6.41
2023-02-13T18:07:39.415Z,6.39
2023-02-13T18:10:09.828Z,6.36
2023-02-13T18:12:40.127Z,6.28
2023-02-13T18:15:10.349Z,6.29
2023-02-13T18:17:38.847Z,6.21
2023-02-13T18:20:10.094Z,6.22
2023-02-13T18:22:38.072Z,6.27
2023-02-13T18:25:06.830Z,6.28
2023-02-13T18:27:34.814Z,6.30
2023-02-13T18:30:02.780Z,6.31
2023-02-13T18:32:32.965Z,6.34
2023-02-13T18:35:00.889Z,6.34
2023-02-13T18:37:29.427Z,6.31
2023-02-13T18:39:57.896Z,6.29
2023-02-13T18:42:26.089Z,6.22
2023-02-13T18:44:54.278Z,6.20
2023-02-13T18:47:22.179Z,6.17
2023-02-13T18:49:51.501Z,6.16
2023-02-13T18:52:19.341Z,6.16
2023-02-13T18:54:47.219Z,6.19
2023-02-13T18:57:15.159Z,6.22
2023-02-13T18:59:43.143Z,6.27
2023-02-13T19:02:11.551Z,6.32
2023-02-13T19:04:39.500Z,6.38
2023-02-13T19:07:08.750Z,6.42
2023-02-13T19:09:40.239Z,6.46
2023-02-13T19:12:09.057Z,6.47
2023-02-13T19:14:37.062Z,6.47
2023-02-13T19:17:05.111Z,6.45
2023-02-13T19:19:32.911Z,6.40
2023-02-13T19:22:00.747Z,6.38
2023-02-13T19:24:29.950Z,6.40
2023-02-13T19:26:57.889Z,6.39
2023-02-13T19:29:25.904Z,6.36
2023-02-13T19:31:53.875Z,6.30
2023-02-13T19:34:21.775Z,6.31
2023-02-13T19:36:49.692Z,6.30
2023-02-13T19:39:18.062Z,6.16
2023-02-13T19:41:47.343Z,6.02
2023-02-13T19:44:16.010Z,5.76
2023-02-13T19:46:44.079Z,5.85
2023-02-13T19:49:12.053Z,5.83
2023-02-13T19:51:42.041Z,5.83
2023-02-13T19:54:11.688Z,5.83
2023-02-13T19:56:40.914Z,5.81
2023-02-13T19:59:13.497Z,5.85
2023-02-13T20:01:42.668Z,5.86
2023-02-13T20:04:11.092Z,5.80
2023-02-13T20:06:39.364Z,5.82
2023-02-13T20:09:09.802Z,5.83
2023-02-13T20:11:38.088Z,5.90
2023-02-13T20:14:11.308Z,5.95
2023-02-13T20:16:40.637Z,5.97
2023-02-13T20:19:11.472Z,5.99
2023-02-13T20:21:41.324Z,6.00
2023-02-13T20:24:10.470Z,5.98
2023-02-13T20:26:39.066Z,5.98
2023-02-13T20:29:07.456Z,5.95
2023-02-13T20:31:35.751Z,5.93
2023-02-13T20:34:07.781Z,5.90
2023-02-13T20:36:36.085Z,5.90
2023-02-13T20:39:06.470Z,5.92
2023-02-13T20:41:36.882Z,5.95
2023-02-13T20:44:07.708Z,5.99
2023-02-13T20:46:37.914Z,6.01
2023-02-13T20:49:07.249Z,5.97
2023-02-13T20:51:35.837Z,5.84
2023-02-13T20:54:04.315Z,5.77
2023-02-13T20:56:32.514Z,5.77
2023-02-13T20:59:02.436Z,5.78
2023-02-13T21:01:32.410Z,5.81
2023-02-13T21:04:00.597Z,5.85
2023-02-13T21:06:31.212Z,5.84
2023-02-13T21:08:59.312Z,5.92
2023-02-13T21:11:28.344Z,5.94
2023-02-13T21:13:57.446Z,5.90
2023-02-13T21:16:27.733Z,5.97
2023-02-13T21:19:00.262Z,5.99
2023-02-13T21:21:31.379Z,6.02
2023-02-13T21:24:01.882Z,6.01
2023-02-13T21:26:30.360Z,5.98
2023-02-13T21:28:59.073Z,5.96
2023-02-13T21:31:30.292Z,5.96
2023-02-13T21:34:00.058Z,5.95
2023-02-13T21:36:29.499Z,5.93
2023-02-13T21:38:57.582Z,5.95
2023-02-13T21:41:25.577Z,5.94
2023-02-13T21:43:53.681Z,5.92
2023-02-13T21:46:23.590Z,5.90
2023-02-13T21:48:54.400Z,5.87
2023-02-13T21:51:23.403Z,5.85
2023-02-13T21:53:53.575Z,5.83
2023-02-13T21:56:23.394Z,5.84
2023-02-13T21:58:51.798Z,5.84
2023-02-13T22:01:26.486Z,5.83
2023-02-13T22:03:58.500Z,5.82
2023-02-13T22:06:29.078Z,5.82
2023-02-13T22:08:59.474Z,5.83
2023-02-13T22:11:28.207Z,5.81
2023-02-13T22:13:57.628Z,5.83
2023-02-13T22:16:25.719Z,5.85
2023-02-13T22:18:53.721Z,5.85
2023-02-13T22:21:24.033Z,5.82
2023-02-13T22:23:52.639Z,5.77
2023-02-13T22:26:24.359Z,5.84
2023-02-13T22:28:53.202Z,5.84
2023-02-13T22:31:24.959Z,5.85
2023-02-13T22:34:03.466Z,5.83
2023-02-13T22:36:32.736Z,5.81
2023-02-13T22:39:00.902Z,5.82
2023-02-13T22:41:30.508Z,5.82
2023-02-13T22:43:58.684Z,5.82
2023-02-13T22:46:29.020Z,5.83
2023-02-13T22:48:57.227Z,5.78
2023-02-13T22:51:26.928Z,5.81
2023-02-13T22:53:56.221Z,5.75
2023-02-13T22:56:25.386Z,5.80
2023-02-13T22:58:54.697Z,5.81
2023-02-13T23:01:24.692Z,5.83
2023-02-13T23:03:52.678Z,5.84
2023-02-13T23:06:21.738Z,5.84
2023-02-13T23:08:53.313Z,5.71
2023-02-13T23:11:48.391Z,5.85
2023-02-13T23:14:18.356Z,5.85
2023-02-13T23:17:03.894Z,5.85
2023-02-13T23:19:31.826Z,5.86
2023-02-13T23:22:00.021Z,5.85
2023-02-13T23:24:27.926Z,5.69
2023-02-13T23:26:55.889Z,5.82
2023-02-13T23:29:25.221Z,5.81
2023-02-13T23:31:53.246Z,5.81
2023-02-13T23:34:21.314Z,5.80
2023-02-13T23:36:49.273Z,5.79
2023-02-13T23:39:17.312Z,5.75
2023-02-13T23:41:45.186Z,5.74
2023-02-13T23:44:13.282Z,5.73
2023-02-13T23:46:42.649Z,5.71
2023-02-13T23:49:10.969Z,5.67
2023-02-13T23:51:38.783Z,5.64
2023-02-13T23:54:06.681Z,5.56
2023-02-13T23:56:34.603Z,5.52
2023-02-13T23:59:02.451Z,5.46
